Archival Weather

South Haven Area Rgnl

South Haven, Michigan (KLWA)

Report from: Wednesday, December 6, 2023 2:15 AM EST
Current time: Saturday, February 24, 2024 11:36 AM EST

Current weather – Weather history – Daily summaries
Weather forecast

Temperature2.0°C (35.6°F)
Dew point0.2°C (32.4°F)
Winds Calm
Visibility10 mi. (16.1 km)
Clouds Ceiling: Broken clouds 3,300 ft. (1,006 m)
Broken clouds 4,000 ft. (1,219 m)
Overcast 4,900 ft. (1,494 m)
Altimeter30.20 in.Hg (1023 mB)
Relative humidity88 %
Density altitude-1,809 ft. (-551 m)
Remarks Fully automated report
Automated weather observing station with precipitation discriminator
Flight conditions Visual Meteorological Conditions
Raw dataKLWA 060715Z AUTO 00000KT 10SM BKN033 BKN040 OVC049 02/00 A3020 RMK AO2 T00200002
An error has occurred. This application may no longer respond until reloaded. Reload 🗙